Time;durP1;ratioP1;P1;durP2;ratioP2;P2;SDS_P1;SDS_P2;PMS_P1;PMS_P2;Temp;Humidity;BMP_temperature;BMP_pressure;BME280_temperature;BME280_humidity;BME280_pressure;Samples;Min_cycle;Max_cycle;Signal;HPM_P1;HPM_P2
2021/04/17 00:01:50;;;;;;;;;;;;;;;;;;7358485;40;1253;-16
2021/04/17 00:07:11;;;;;;;;;;;;;;;;;;7358468;40;953;-17
2021/04/17 00:12:31;;;;;;;;;;;;;;;;;;7357941;40;1878;-16
2021/04/17 00:17:52;;;;;;;;;;;;;;;;;;7357173;40;1642;-16
2021/04/17 00:23:26;;;;;;;;;;;;;;;;;;7357405;40;1177;-16
2021/04/17 00:28:47;;;;;;;;;;;;;;;;;;7357916;40;1211;-16
2021/04/17 00:34:07;;;;;;;;;;;;;;;;;;7357650;40;1994;-16
2021/04/17 00:39:28;;;;;;;;;;;;;;;;;;7345111;40;1216;-15
2021/04/17 00:44:49;;;;;;;;;;;;;;;;;;7366692;40;1101;-17
2021/04/17 00:50:25;;;;;;;;;;;;;;;;;;7365012;40;1890;-15
2021/04/17 00:55:46;;;;;;;;;;;;;;;;;;7372743;40;1233;-16
2021/04/17 01:01:07;;;;;;;;;;;;;;;;;;7381043;40;1280;-15
2021/04/17 01:06:46;;;;;;;;;;;;;;;;;;7380462;40;1145;-16
2021/04/17 01:12:09;;;;;;;;;;;;;;;;;;7381001;40;2292;-16
2021/04/17 01:17:29;;;;;;;;;;;;;;;;;;7369129;40;1112;-16
2021/04/17 01:23:02;;;;;;;;;;;;;;;;;;7359946;40;1218;-16
2021/04/17 01:28:23;;;;;;;;;;;;;;;;;;7366057;40;1057;-16
2021/04/17 01:34:01;;;;;;;;;;;;;;;;;;7379736;40;1889;-16
2021/04/17 01:39:24;;;;;;;;;;;;;;;;;;7379606;40;1644;-16
2021/04/17 01:44:46;;;;;;;;;;;;;;;;;;7380014;40;1677;-15
2021/04/17 01:50:07;;;;;;;;;;;;;;;;;;7380395;40;1930;-16
2021/04/17 01:55:42;;;;;;;;;;;;;;;;;;7373541;40;1063;-15
2021/04/17 02:01:03;;;;;;;;;;;;;;;;;;7357104;40;1325;-16
2021/04/17 02:06:24;;;;;;;;;;;;;;;;;;7358443;40;1244;-15
2021/04/17 02:11:45;;;;;;;;;;;;;;;;;;7359527;40;1882;-15
2021/04/17 02:17:06;;;;;;;;;;;;;;;;;;7359739;40;1438;-16
2021/04/17 02:22:41;;;;;;;;;;;;;;;;;;7359727;40;980;-15
2021/04/17 02:28:02;;;;;;;;;;;;;;;;;;7359682;40;1575;-15
2021/04/17 02:33:22;;;;;;;;;;;;;;;;;;7359783;40;1893;-16
2021/04/17 02:38:42;;;;;;;;;;;;;;;;;;7359562;40;1120;-15
2021/04/17 02:44:17;;;;;;;;;;;;;;;;;;7363193;40;1165;-17
2021/04/17 02:49:39;;;;;;;;;;;;;;;;;;7357904;40;1878;-16
2021/04/17 02:55:00;;;;;;;;;;;;;;;;;;7377747;40;1147;-16
2021/04/17 03:00:24;;;;;;;;;;;;;;;;;;7379579;40;1162;-16
2021/04/17 03:05:45;;;;;;;;;;;;;;;;;;7379778;40;1007;-16
2021/04/17 03:11:05;;;;;;;;;;;;;;;;;;7379243;40;2050;-16
2021/04/17 03:16:39;;;;;;;;;;;;;;;;;;7371257;40;1034;-16
2021/04/17 03:22:00;;;;;;;;;;;;;;;;;;7359167;40;989;-16
2021/04/17 03:27:22;;;;;;;;;;;;;;;;;;7359138;40;1131;-15
2021/04/17 03:32:42;;;;;;;;;;;;;;;;;;7371153;40;1929;-17
2021/04/17 03:38:18;;;;;;;;;;;;;;;;;;7379110;40;1415;-16
2021/04/17 03:43:39;;;;;;;;;;;;;;;;;;7378959;40;898;-16
2021/04/17 03:49:00;;;;;;;;;;;;;;;;;;7377015;40;1622;-16
2021/04/17 03:54:20;;;;;;;;;;;;;;;;;;7379311;40;1874;-17
2021/04/17 03:59:54;;;;;;;;;;;;;;;;;;7371749;40;1097;-15
2021/04/17 04:05:29;;;;;;;;;;;;;;;;;;7378914;40;995;-16
2021/04/17 04:10:50;;;;;;;;;;;;;;;;;;7388352;40;1963;-16
2021/04/17 04:16:11;;;;;;;;;;;;;;;;;;7369740;40;1173;-16
2021/04/17 04:21:32;;;;;;;;;;;;;;;;;;7369901;40;1029;-15
2021/04/17 04:26:53;;;;;;;;;;;;;;;;;;7370239;40;1072;-15
2021/04/17 04:32:14;;;;;;;;;;;;;;;;;;7369355;40;1882;-15
2021/04/17 04:37:35;;;;;;;;;;;;;;;;;;7370235;40;1040;-16
2021/04/17 04:42:55;;;;;;;;;;;;;;;;;;7378758;40;1178;-15
2021/04/17 04:48:16;;;;;;;;;;;;;;;;;;7369686;40;1512;-16
2021/04/17 04:53:37;;;;;;;;;;;;;;;;;;7366662;40;1961;-15
2021/04/17 04:58:57;;;;;;;;;;;;;;;;;;7357679;40;1232;-16
2021/04/17 05:04:32;;;;;;;;;;;;;;;;;;7348446;40;1221;-14
2021/04/17 05:09:53;;;;;;;;;;;;;;;;;;7362972;40;1879;-14
2021/04/17 05:15:13;;;;;;;;;;;;;;;;;;7362753;40;1552;-16
2021/04/17 05:20:34;;;;;;;;;;;;;;;;;;7378290;40;1082;-16
2021/04/17 05:25:54;;;;;;;;;;;;;;;;;;7379966;40;1175;-16
2021/04/17 05:31:15;;;;;;;;;;;;;;;;;;7377821;40;2010;-16
2021/04/17 05:36:36;;;;;;;;;;;;;;;;;;7370885;40;1612;-16
2021/04/17 05:41:56;;;;;;;;;;;;;;;;;;7365889;40;998;-16
2021/04/17 05:47:17;;;;;;;;;;;;;;;;;;7393424;40;1545;-16
2021/04/17 05:52:38;;;;;;;;;;;;;;;;;;7386074;40;1957;-16
2021/04/17 05:58:13;;;;;;;;;;;;;;;;;;7380554;40;1099;-16
2021/04/17 06:03:34;;;;;;;;;;;;;;;;;;7357629;40;1408;-16
2021/04/17 06:08:54;;;;;;;;;;;;;;;;;;7365366;40;1074;-14
2021/04/17 06:14:15;;;;;;;;;;;;;;;;;;7378869;40;1932;-16
2021/04/17 06:19:35;;;;;;;;;;;;;;;;;;7380274;40;1759;-16
2021/04/17 06:25:10;;;;;;;;;;;;;;;;;;7380115;40;1145;-15
2021/04/17 06:30:31;;;;;;;;;;;;;;;;;;7377942;40;1941;-16
2021/04/17 06:35:53;;;;;;;;;;;;;;;;;;7379734;40;1019;-16
2021/04/17 06:41:14;;;;;;;;;;;;;;;;;;7387221;40;1004;-15
2021/04/17 06:46:49;;;;;;;;;;;;;;;;;;7129681;40;10000541;-15
2021/04/17 06:52:12;;;;;;;;;;;;;;;;;;7382753;40;1919;-15
2021/04/17 06:57:33;;;;;;;;;;;;;;;;;;7374318;40;1182;-15
2021/04/17 07:02:53;;;;;;;;;;;;;;;;;;7377069;40;1198;-14
2021/04/17 07:08:14;;;;;;;;;;;;;;;;;;7376398;40;1131;-16
2021/04/17 07:13:34;;;;;;;;;;;;;;;;;;7376666;40;1932;-15
2021/04/17 07:18:55;;;;;;;;;;;;;;;;;;7368850;40;1000;-17
2021/04/17 07:24:22;;;;;;;;;;;;;;;;;;7344330;40;1230;-15
2021/04/17 07:29:44;;;;;;;;;;;;;;;;;;7356425;40;978;-15
2021/04/17 07:35:07;;;;;;;;;;;;;;;;;;7356457;40;1941;-16
2021/04/17 07:40:47;;;;;;;;;;;;;;;;;;7340187;40;1160;-17
2021/04/17 07:46:22;;;;;;;;;;;;;;;;;;7366333;40;2788;-16
2021/04/17 07:52:04;;;;;;;;;;;;;;;;;;7376154;40;1960;-17
2021/04/17 07:57:32;;;;;;;;;;;;;;;;;;7376293;40;1073;-20
2021/04/17 08:02:53;;;;;;;;;;;;;;;;;;7376004;40;1206;-15
2021/04/17 08:08:14;;;;;;;;;;;;;;;;;;7376078;40;1110;-15
2021/04/17 08:13:50;;;;;;;;;;;;;;;;;;7375916;40;1887;-15
2021/04/17 08:19:11;;;;;;;;;;;;;;;;;;7366907;40;1694;-16
2021/04/17 08:24:32;;;;;;;;;;;;;;;;;;7375958;40;1168;-16
2021/04/17 08:29:54;;;;;;;;;;;;;;;;;;7374445;40;999;-14
2021/04/17 08:35:18;;;;;;;;;;;;;;;;;;7375771;40;1020;-15
2021/04/17 08:40:53;;;;;;;;;;;;;;;;;;7375428;40;1244;-15
2021/04/17 08:46:14;;;;;;;;;;;;;;;;;;7366708;40;2566;-16
2021/04/17 08:51:37;;;;;;;;;;;;;;;;;;7376076;40;1933;-16
2021/04/17 08:56:59;;;;;;;;;;;;;;;;;;7377142;40;1137;-16
2021/04/17 09:02:21;;;;;;;;;;;;;;;;;;7378047;40;1312;-16
2021/04/17 09:07:44;;;;;;;;;;;;;;;;;;7377037;40;1417;-17
2021/04/17 09:13:13;;;;;;;;;;;;;;;;;;7378720;40;1882;-16
2021/04/17 09:18:37;;;;;;;;;;;;;;;;;;7370466;40;1033;-17
2021/04/17 09:23:59;;;;;;;;;;;;;;;;;;7357829;40;1015;-17
2021/04/17 09:29:21;;;;;;;;;;;;;;;;;;7357553;40;1039;-17
2021/04/17 09:34:42;;;;;;;;;;;;;;;;;;7371703;40;1944;-16
2021/04/17 09:40:04;;;;;;;;;;;;;;;;;;7379247;40;1241;-17
2021/04/17 09:45:29;;;;;;;;;;;;;;;;;;7372812;40;1209;-17
2021/04/17 09:50:51;;;;;;;;;;;;;;;;;;7365024;40;1880;-16
2021/04/17 09:56:38;;;;;;;;;;;;;;;;;;7381012;40;980;-16
2021/04/17 10:01:59;;;;;;;;;;;;;;;;;;7367577;40;1419;-15
2021/04/17 10:07:20;;;;;;;;;;;;;;;;;;7358987;40;994;-16
2021/04/17 10:12:47;;;;;;;;;;;;;;;;;;7359126;40;1877;-16
2021/04/17 10:18:20;;;;;;;;;;;;;;;;;;7380235;40;1257;-15
2021/04/17 10:23:41;;;;;;;;;;;;;;;;;;7380566;40;1111;-23
2021/04/17 10:29:19;;;;;;;;;;;;;;;;;;7378495;40;1363;-15
2021/04/17 10:34:40;;;;;;;;;;;;;;;;;;7380647;40;1951;-16
2021/04/17 10:40:06;;;;;;;;;;;;;;;;;;7354104;40;1185;-16
2021/04/17 10:45:30;;;;;;;;;;;;;;;;;;7375447;40;1769;-15
2021/04/17 10:51:06;;;;;;;;;;;;;;;;;;7379077;40;1908;-15
2021/04/17 10:56:28;;;;;;;;;;;;;;;;;;7371783;40;968;-15
2021/04/17 11:01:49;;;;;;;;;;;;;;;;;;7378376;40;1702;-15
2021/04/17 11:07:10;;;;;;;;;;;;;;;;;;7380418;40;968;-15
2021/04/17 11:12:32;;;;;;;;;;;;;;;;;;7378564;40;1870;-16
2021/04/17 11:18:12;;;;;;;;;;;;;;;;;;7371382;40;1055;-17
2021/04/17 11:23:47;;;;;;;;;;;;;;;;;;7377821;40;979;-13
2021/04/17 11:29:07;;;;;;;;;;;;;;;;;;7380487;40;930;-16
2021/04/17 11:34:28;;;;;;;;;;;;;;;;;;7367765;40;1886;-15
2021/04/17 11:39:49;;;;;;;;;;;;;;;;;;7363907;40;1271;-16
2021/04/17 11:45:10;;;;;;;;;;;;;;;;;;7364724;40;1027;-16
2021/04/17 11:50:32;;;;;;;;;;;;;;;;;;7363988;40;1585;-16
2021/04/17 11:55:53;;;;;;;;;;;;;;;;;;7357378;40;1129;-13
2021/04/17 12:01:14;;;;;;;;;;;;;;;;;;7368463;40;1369;-15
2021/04/17 12:06:34;;;;;;;;;;;;;;;;;;7379456;40;1420;-15
2021/04/17 12:11:55;;;;;;;;;;;;;;;;;;7379357;40;1891;-15
2021/04/17 12:17:29;;;;;;;;;;;;;;;;;;7379135;40;1030;-15
2021/04/17 12:22:50;;;;;;;;;;;;;;;;;;7378179;40;1072;-15
2021/04/17 12:28:10;;;;;;;;;;;;;;;;;;7385315;40;1007;-15
2021/04/17 12:33:30;;;;;;;;;;;;;;;;;;7380408;40;1945;-15
2021/04/17 12:38:51;;;;;;;;;;;;;;;;;;7394642;40;1088;-15
2021/04/17 12:44:12;;;;;;;;;;;;;;;;;;7377005;40;1083;-15
2021/04/17 12:49:32;;;;;;;;;;;;;;;;;;7371525;40;1061;-15
2021/04/17 12:54:53;;;;;;;;;;;;;;;;;;7361548;40;1882;-15
2021/04/17 13:00:14;;;;;;;;;;;;;;;;;;7361507;40;1089;-15
2021/04/17 13:05:36;;;;;;;;;;;;;;;;;;7368875;40;1191;-14
2021/04/17 13:10:57;;;;;;;;;;;;;;;;;;7366225;40;1936;-16
2021/04/17 13:16:18;;;;;;;;;;;;;;;;;;7365462;40;1147;-16
2021/04/17 13:21:38;;;;;;;;;;;;;;;;;;7360942;40;1149;-16
2021/04/17 13:27:00;;;;;;;;;;;;;;;;;;7360628;40;1130;-16
2021/04/17 13:32:20;;;;;;;;;;;;;;;;;;7117312;40;10000497;-15
2021/04/17 13:37:41;;;;;;;;;;;;;;;;;;7377691;40;1342;-16
2021/04/17 13:43:01;;;;;;;;;;;;;;;;;;7377742;40;1057;-17
2021/04/17 13:48:22;;;;;;;;;;;;;;;;;;7376835;40;1024;-15
2021/04/17 13:53:56;;;;;;;;;;;;;;;;;;7378220;40;1882;-16
2021/04/17 13:59:17;;;;;;;;;;;;;;;;;;7369008;40;1582;-15
2021/04/17 14:04:38;;;;;;;;;;;;;;;;;;7356687;40;970;-17
2021/04/17 14:10:00;;;;;;;;;;;;;;;;;;7356820;40;1016;-16
2021/04/17 14:15:20;;;;;;;;;;;;;;;;;;7357248;40;1883;-15
2021/04/17 14:20:41;;;;;;;;;;;;;;;;;;7356058;40;988;-16
2021/04/17 14:26:01;;;;;;;;;;;;;;;;;;7356405;40;945;-15
2021/04/17 14:31:22;;;;;;;;;;;;;;;;;;7356039;40;1967;-17
2021/04/17 14:36:43;;;;;;;;;;;;;;;;;;7374436;40;2416;-15
2021/04/17 14:42:03;;;;;;;;;;;;;;;;;;7377502;40;1817;-14
2021/04/17 14:47:38;;;;;;;;;;;;;;;;;;7368154;40;1014;-16
2021/04/17 14:53:14;;;;;;;;;;;;;;;;;;7368231;40;1964;-15
2021/04/17 14:58:50;;;;;;;;;;;;;;;;;;7356064;40;1449;-13
2021/04/17 15:04:10;;;;;;;;;;;;;;;;;;6712255;40;10000270;-15
2021/04/17 15:09:31;;;;;;;;;;;;;;;;;;7356522;40;1002;-14
2021/04/17 15:15:07;;;;;;;;;;;;;;;;;;7356074;40;1927;-15
2021/04/17 15:20:41;;;;;;;;;;;;;;;;;;7362821;40;1089;-15
2021/04/17 15:26:07;;;;;;;;;;;;;;;;;;7368174;40;1025;-16
2021/04/17 15:31:27;;;;;;;;;;;;;;;;;;7375891;40;1943;-13
2021/04/17 15:36:48;;;;;;;;;;;;;;;;;;7376506;40;2417;-17
2021/04/17 15:42:22;;;;;;;;;;;;;;;;;;7378390;40;1212;-16
2021/04/17 15:47:43;;;;;;;;;;;;;;;;;;7379329;40;1077;-16
2021/04/17 15:53:10;;;;;;;;;;;;;;;;;;7378396;40;1891;-15
2021/04/17 16:14:17;;;;;;;;;;;;;;;;;;7378076;40;2213;-15
2021/04/17 16:15:34;;;;;;;;;;;;;;;;;;7377158;40;1961;-15
2021/04/17 16:20:55;;;;;;;;;;;;;;;;;;7378610;40;1832;-16
2021/04/17 16:26:16;;;;;;;;;;;;;;;;;;7378954;40;1339;-15
2021/04/17 16:31:37;;;;;;;;;;;;;;;;;;7358033;40;1874;-16
2021/04/17 16:37:12;;;;;;;;;;;;;;;;;;7357735;40;1048;-15
2021/04/17 16:42:46;;;;;;;;;;;;;;;;;;7364281;40;989;-15
2021/04/17 16:48:07;;;;;;;;;;;;;;;;;;7358394;40;972;-15
2021/04/17 16:53:28;;;;;;;;;;;;;;;;;;7362428;40;1933;-17
2021/04/17 16:58:50;;;;;;;;;;;;;;;;;;7376460;40;1358;-16
2021/04/17 17:04:11;;;;;;;;;;;;;;;;;;7378350;40;1151;-16
2021/04/17 17:09:31;;;;;;;;;;;;;;;;;;7389883;40;1022;-19
2021/04/17 17:15:08;;;;;;;;;;;;;;;;;;7384203;40;1891;-16
2021/04/17 17:20:29;;;;;;;;;;;;;;;;;;7391150;40;1774;-16
2021/04/17 17:25:50;;;;;;;;;;;;;;;;;;7400014;40;1293;-16
2021/04/17 17:31:12;;;;;;;;;;;;;;;;;;7391957;40;1554;-16
2021/04/17 17:36:35;;;;;;;;;;;;;;;;;;7392248;40;1705;-16
2021/04/17 17:41:56;;;;;;;;;;;;;;;;;;7393406;40;1006;-16
2021/04/17 17:47:17;;;;;;;;;;;;;;;;;;7385147;40;1036;-15
2021/04/17 17:52:38;;;;;;;;;;;;;;;;;;7380260;40;1890;-16
2021/04/17 17:57:58;;;;;;;;;;;;;;;;;;7379681;40;1059;-16
2021/04/17 18:03:20;;;;;;;;;;;;;;;;;;7379759;40;1296;-16
2021/04/17 18:08:40;;;;;;;;;;;;;;;;;;7379747;40;1133;-15
2021/04/17 18:14:00;;;;;;;;;;;;;;;;;;7386227;40;1942;-16
2021/04/17 18:19:21;;;;;;;;;;;;;;;;;;7378800;40;1162;-15
2021/04/17 18:24:41;;;;;;;;;;;;;;;;;;7380514;40;1094;-16
2021/04/17 18:30:18;;;;;;;;;;;;;;;;;;7379338;40;970;-16
2021/04/17 18:35:54;;;;;;;;;;;;;;;;;;7374050;40;1890;-15
2021/04/17 18:41:14;;;;;;;;;;;;;;;;;;7380595;40;1080;-16
2021/04/17 18:46:35;;;;;;;;;;;;;;;;;;7141417;40;10000116;-14
2021/04/17 18:51:56;;;;;;;;;;;;;;;;;;7385958;40;1886;-15
2021/04/17 18:57:19;;;;;;;;;;;;;;;;;;7379513;40;1035;-16
2021/04/17 19:02:39;;;;;;;;;;;;;;;;;;7377242;40;1292;-16
2021/04/17 19:08:00;;;;;;;;;;;;;;;;;;7376247;40;1136;-15
2021/04/17 19:13:21;;;;;;;;;;;;;;;;;;7374358;40;1895;-14
2021/04/17 19:18:41;;;;;;;;;;;;;;;;;;7376531;40;963;-16
2021/04/17 19:24:16;;;;;;;;;;;;;;;;;;7376374;40;1223;-16
2021/04/17 19:29:36;;;;;;;;;;;;;;;;;;7375867;40;1425;-16
2021/04/17 19:35:11;;;;;;;;;;;;;;;;;;7376685;40;1948;-15
2021/04/17 19:40:32;;;;;;;;;;;;;;;;;;7377516;40;2071;-14
2021/04/17 19:45:53;;;;;;;;;;;;;;;;;;7374486;40;1408;-16
2021/04/17 19:51:13;;;;;;;;;;;;;;;;;;7373195;40;2186;-16
2021/04/17 19:56:33;;;;;;;;;;;;;;;;;;7374565;40;1263;-16
2021/04/17 20:01:54;;;;;;;;;;;;;;;;;;7380194;40;1188;-17
2021/04/17 20:07:15;;;;;;;;;;;;;;;;;;7375847;40;1330;-17
2021/04/17 20:12:35;;;;;;;;;;;;;;;;;;7376780;40;1925;-16
2021/04/17 20:17:56;;;;;;;;;;;;;;;;;;7366489;40;1336;-15
2021/04/17 20:23:16;;;;;;;;;;;;;;;;;;7375118;40;1183;-17
2021/04/17 20:28:37;;;;;;;;;;;;;;;;;;7372816;40;1005;-16
2021/04/17 20:33:59;;;;;;;;;;;;;;;;;;7365909;40;1927;-16
2021/04/17 20:39:19;;;;;;;;;;;;;;;;;;7366104;40;1199;-16
2021/04/17 20:44:40;;;;;;;;;;;;;;;;;;7375129;40;1348;-16
2021/04/17 20:50:00;;;;;;;;;;;;;;;;;;7374156;40;953;-17
2021/04/17 20:55:35;;;;;;;;;;;;;;;;;;7374102;40;1877;-16
2021/04/17 21:00:55;;;;;;;;;;;;;;;;;;7377259;40;1423;-15
2021/04/17 21:06:19;;;;;;;;;;;;;;;;;;7377708;40;1471;-15
2021/04/17 21:11:40;;;;;;;;;;;;;;;;;;7377938;40;1933;-15
2021/04/17 21:17:01;;;;;;;;;;;;;;;;;;7381404;40;993;-16
2021/04/17 21:22:21;;;;;;;;;;;;;;;;;;7386026;40;1063;-17
2021/04/17 21:27:42;;;;;;;;;;;;;;;;;;7379362;40;1010;-14
2021/04/17 21:33:02;;;;;;;;;;;;;;;;;;7381420;40;1929;-15
2021/04/17 21:38:24;;;;;;;;;;;;;;;;;;7377928;40;3225;-20
2021/04/17 21:43:59;;;;;;;;;;;;;;;;;;7381001;40;1209;-21
2021/04/17 21:49:19;;;;;;;;;;;;;;;;;;7380494;40;998;-20
2021/04/17 21:54:40;;;;;;;;;;;;;;;;;;7358348;40;1890;-21
2021/04/17 22:00:00;;;;;;;;;;;;;;;;;;7360163;40;1251;-20
2021/04/17 22:05:35;;;;;;;;;;;;;;;;;;7371882;40;1001;-18
2021/04/17 22:10:56;;;;;;;;;;;;;;;;;;7379074;40;1128;-21
2021/04/17 22:16:32;;;;;;;;;;;;;;;;;;7379306;40;1873;-20
2021/04/17 22:22:07;;;;;;;;;;;;;;;;;;7380478;40;1247;-20
2021/04/17 22:27:42;;;;;;;;;;;;;;;;;;7379689;40;1176;-21
2021/04/17 22:33:02;;;;;;;;;;;;;;;;;;7380512;40;1879;-20
2021/04/17 22:38:23;;;;;;;;;;;;;;;;;;7371626;40;1299;-20
2021/04/17 22:43:44;;;;;;;;;;;;;;;;;;7378413;40;1266;-20
2021/04/17 22:49:04;;;;;;;;;;;;;;;;;;7374347;40;1056;-20
2021/04/17 22:54:25;;;;;;;;;;;;;;;;;;7376192;40;1937;-20
2021/04/17 22:59:45;;;;;;;;;;;;;;;;;;7379897;40;1173;-18
2021/04/17 23:05:06;;;;;;;;;;;;;;;;;;7371285;40;1599;-21
2021/04/17 23:10:27;;;;;;;;;;;;;;;;;;7379662;40;1003;-20
2021/04/17 23:16:03;;;;;;;;;;;;;;;;;;7371806;40;1961;-20
2021/04/17 23:21:39;;;;;;;;;;;;;;;;;;7357166;40;1026;-20
2021/04/17 23:26:59;;;;;;;;;;;;;;;;;;7379888;40;1067;-21
2021/04/17 23:32:20;;;;;;;;;;;;;;;;;;7379409;40;1880;-21
2021/04/17 23:37:40;;;;;;;;;;;;;;;;;;7379092;40;1738;-19
2021/04/17 23:43:15;;;;;;;;;;;;;;;;;;7377996;40;1060;-21
2021/04/17 23:48:51;;;;;;;;;;;;;;;;;;7378818;40;1006;-21
2021/04/17 23:54:25;;;;;;;;;;;;;;;;;;7376975;40;1963;-21
2021/04/17 23:59:46;;;;;;;;;;;;;;;;;;7377171;40;1092;-22
